sensor_id;sensor_type;location;lat;lon;timestamp;P1;durP1;ratioP1;P2;durP2;ratioP2
60869;SDS011;46710;43.680;4.132;2022-08-01T00:01:58;2.75;;;2.28;;
60869;SDS011;46710;43.680;4.132;2022-08-01T00:04:24;2.70;;;2.20;;
60869;SDS011;46710;43.680;4.132;2022-08-01T00:06:50;3.45;;;2.35;;
60869;SDS011;46710;43.680;4.132;2022-08-01T00:09:16;3.00;;;2.00;;
60869;SDS011;46710;43.680;4.132;2022-08-01T00:11:43;3.83;;;2.03;;
60869;SDS011;46710;43.680;4.132;2022-08-01T00:14:09;2.75;;;1.80;;
60869;SDS011;46710;43.680;4.132;2022-08-01T00:16:35;2.80;;;1.80;;
60869;SDS011;46710;43.680;4.132;2022-08-01T00:19:01;4.45;;;1.80;;
60869;SDS011;46710;43.680;4.132;2022-08-01T00:21:27;2.30;;;1.80;;
60869;SDS011;46710;43.680;4.132;2022-08-01T00:23:54;2.62;;;1.73;;
60869;SDS011;46710;43.680;4.132;2022-08-01T00:26:20;2.62;;;1.95;;
60869;SDS011;46710;43.680;4.132;2022-08-01T00:28:46;2.15;;;1.90;;
60869;SDS011;46710;43.680;4.132;2022-08-01T00:31:12;2.72;;;2.00;;
60869;SDS011;46710;43.680;4.132;2022-08-01T00:33:38;2.97;;;1.98;;
60869;SDS011;46710;43.680;4.132;2022-08-01T00:36:04;2.37;;;2.08;;
60869;SDS011;46710;43.680;4.132;2022-08-01T00:38:31;2.25;;;2.05;;
60869;SDS011;46710;43.680;4.132;2022-08-01T00:40:57;1.80;;;1.70;;
60869;SDS011;46710;43.680;4.132;2022-08-01T00:43:23;2.03;;;1.87;;
60869;SDS011;46710;43.680;4.132;2022-08-01T00:45:49;2.67;;;1.98;;
60869;SDS011;46710;43.680;4.132;2022-08-01T00:48:15;2.55;;;2.12;;
60869;SDS011;46710;43.680;4.132;2022-08-01T00:50:41;2.42;;;2.00;;
60869;SDS011;46710;43.680;4.132;2022-08-01T00:53:07;2.28;;;2.03;;
60869;SDS011;46710;43.680;4.132;2022-08-01T00:55:34;3.17;;;2.20;;
60869;SDS011;46710;43.680;4.132;2022-08-01T00:58:00;3.62;;;2.10;;
60869;SDS011;46710;43.680;4.132;2022-08-01T01:00:26;2.12;;;1.92;;
60869;SDS011;46710;43.680;4.132;2022-08-01T01:02:52;5.40;;;2.12;;
60869;SDS011;46710;43.680;4.132;2022-08-01T01:05:18;2.05;;;1.95;;
60869;SDS011;46710;43.680;4.132;2022-08-01T01:07:50;1.90;;;1.80;;
60869;SDS011;46710;43.680;4.132;2022-08-01T01:10:31;1.92;;;1.70;;
60869;SDS011;46710;43.680;4.132;2022-08-01T01:13:05;2.97;;;1.98;;
60869;SDS011;46710;43.680;4.132;2022-08-01T01:18:20;2.58;;;1.90;;
60869;SDS011;46710;43.680;4.132;2022-08-01T01:20:52;2.75;;;1.83;;
60869;SDS011;46710;43.680;4.132;2022-08-01T01:31:44;1.60;;;1.50;;
60869;SDS011;46710;43.680;4.132;2022-08-01T01:34:12;3.35;;;1.90;;
60869;SDS011;46710;43.680;4.132;2022-08-01T01:36:39;2.50;;;2.00;;
60869;SDS011;46710;43.680;4.132;2022-08-01T01:39:05;4.22;;;1.80;;
60869;SDS011;46710;43.680;4.132;2022-08-01T01:41:32;2.03;;;1.80;;
60869;SDS011;46710;43.680;4.132;2022-08-01T01:43:58;2.58;;;1.85;;
60869;SDS011;46710;43.680;4.132;2022-08-01T01:46:26;1.90;;;1.60;;
60869;SDS011;46710;43.680;4.132;2022-08-01T01:48:53;3.47;;;1.70;;
60869;SDS011;46710;43.680;4.132;2022-08-01T01:51:22;2.72;;;1.70;;
60869;SDS011;46710;43.680;4.132;2022-08-01T01:53:48;1.98;;;1.65;;
60869;SDS011;46710;43.680;4.132;2022-08-01T01:56:15;1.75;;;1.50;;
60869;SDS011;46710;43.680;4.132;2022-08-01T01:58:42;2.97;;;1.62;;
60869;SDS011;46710;43.680;4.132;2022-08-01T02:01:09;2.95;;;1.90;;
60869;SDS011;46710;43.680;4.132;2022-08-01T02:03:36;1.80;;;1.70;;
60869;SDS011;46710;43.680;4.132;2022-08-01T02:06:06;3.80;;;1.70;;
60869;SDS011;46710;43.680;4.132;2022-08-01T02:08:32;3.78;;;1.87;;
60869;SDS011;46710;43.680;4.132;2022-08-01T02:10:59;1.50;;;1.40;;
60869;SDS011;46710;43.680;4.132;2022-08-01T02:13:53;1.67;;;1.52;;
60869;SDS011;46710;43.680;4.132;2022-08-01T02:16:21;1.98;;;1.60;;
60869;SDS011;46710;43.680;4.132;2022-08-01T02:18:48;1.73;;;1.58;;
60869;SDS011;46710;43.680;4.132;2022-08-01T02:21:16;3.35;;;1.85;;
60869;SDS011;46710;43.680;4.132;2022-08-01T02:23:45;2.30;;;1.75;;
60869;SDS011;46710;43.680;4.132;2022-08-01T02:26:13;1.98;;;1.77;;
60869;SDS011;46710;43.680;4.132;2022-08-01T02:28:46;2.25;;;1.95;;
60869;SDS011;46710;43.680;4.132;2022-08-01T02:31:14;2.28;;;1.55;;
60869;SDS011;46710;43.680;4.132;2022-08-01T02:33:46;1.60;;;1.48;;
60869;SDS011;46710;43.680;4.132;2022-08-01T02:36:15;3.20;;;1.73;;
60869;SDS011;46710;43.680;4.132;2022-08-01T02:38:43;3.22;;;2.00;;
60869;SDS011;46710;43.680;4.132;2022-08-01T02:41:11;2.83;;;1.50;;
60869;SDS011;46710;43.680;4.132;2022-08-01T02:43:40;1.70;;;1.60;;
60869;SDS011;46710;43.680;4.132;2022-08-01T02:46:08;4.15;;;1.73;;
60869;SDS011;46710;43.680;4.132;2022-08-01T02:48:37;2.58;;;1.65;;
60869;SDS011;46710;43.680;4.132;2022-08-01T02:51:04;1.92;;;1.40;;
60869;SDS011;46710;43.680;4.132;2022-08-01T02:53:32;2.58;;;1.60;;
60869;SDS011;46710;43.680;4.132;2022-08-01T02:56:02;2.00;;;1.80;;
60869;SDS011;46710;43.680;4.132;2022-08-01T02:58:29;4.20;;;1.65;;
60869;SDS011;46710;43.680;4.132;2022-08-01T03:00:55;4.65;;;1.70;;
60869;SDS011;46710;43.680;4.132;2022-08-01T03:03:23;2.55;;;1.27;;
60869;SDS011;46710;43.680;4.132;2022-08-01T03:05:49;1.80;;;1.50;;
60869;SDS011;46710;43.680;4.132;2022-08-01T03:08:16;5.75;;;1.90;;
60869;SDS011;46710;43.680;4.132;2022-08-01T03:10:43;6.82;;;1.95;;
60869;SDS011;46710;43.680;4.132;2022-08-01T03:13:10;3.28;;;1.73;;
60869;SDS011;46710;43.680;4.132;2022-08-01T03:15:37;8.10;;;2.03;;
60869;SDS011;46710;43.680;4.132;2022-08-01T03:18:05;7.15;;;2.12;;
60869;SDS011;46710;43.680;4.132;2022-08-01T03:20:32;8.85;;;2.28;;
60869;SDS011;46710;43.680;4.132;2022-08-01T03:23:03;2.72;;;1.50;;
60869;SDS011;46710;43.680;4.132;2022-08-01T03:25:30;8.13;;;2.10;;
60869;SDS011;46710;43.680;4.132;2022-08-01T03:27:58;4.30;;;1.92;;
60869;SDS011;46710;43.680;4.132;2022-08-01T03:30:25;4.05;;;1.67;;
60869;SDS011;46710;43.680;4.132;2022-08-01T03:32:52;2.33;;;1.52;;
60869;SDS011;46710;43.680;4.132;2022-08-01T03:35:19;1.55;;;1.40;;
60869;SDS011;46710;43.680;4.132;2022-08-01T03:37:46;1.60;;;1.50;;
60869;SDS011;46710;43.680;4.132;2022-08-01T03:42:41;2.75;;;1.60;;
60869;SDS011;46710;43.680;4.132;2022-08-01T03:45:10;4.37;;;1.75;;
60869;SDS011;46710;43.680;4.132;2022-08-01T03:47:37;3.83;;;2.03;;
60869;SDS011;46710;43.680;4.132;2022-08-01T03:50:08;3.05;;;1.60;;
60869;SDS011;46710;43.680;4.132;2022-08-01T03:52:35;1.67;;;1.58;;
60869;SDS011;46710;43.680;4.132;2022-08-01T03:55:03;1.92;;;1.52;;
60869;SDS011;46710;43.680;4.132;2022-08-01T03:57:32;1.85;;;1.52;;
60869;SDS011;46710;43.680;4.132;2022-08-01T03:59:58;1.80;;;1.42;;
60869;SDS011;46710;43.680;4.132;2022-08-01T04:02:26;1.52;;;1.42;;
60869;SDS011;46710;43.680;4.132;2022-08-01T04:04:53;1.85;;;1.50;;
60869;SDS011;46710;43.680;4.132;2022-08-01T04:07:22;2.12;;;1.40;;
60869;SDS011;46710;43.680;4.132;2022-08-01T04:09:49;2.58;;;1.70;;
60869;SDS011;46710;43.680;4.132;2022-08-01T04:12:15;2.42;;;1.58;;
60869;SDS011;46710;43.680;4.132;2022-08-01T04:14:41;2.40;;;1.48;;
60869;SDS011;46710;43.680;4.132;2022-08-01T04:17:08;1.87;;;1.67;;
60869;SDS011;46710;43.680;4.132;2022-08-01T04:19:34;2.08;;;1.52;;
60869;SDS011;46710;43.680;4.132;2022-08-01T04:22:00;2.20;;;1.75;;
60869;SDS011;46710;43.680;4.132;2022-08-01T04:24:28;2.17;;;1.73;;
60869;SDS011;46710;43.680;4.132;2022-08-01T04:26:55;1.50;;;1.40;;
60869;SDS011;46710;43.680;4.132;2022-08-01T04:29:22;2.65;;;1.77;;
60869;SDS011;46710;43.680;4.132;2022-08-01T04:31:49;4.30;;;1.65;;
60869;SDS011;46710;43.680;4.132;2022-08-01T04:34:17;3.33;;;1.52;;
60869;SDS011;46710;43.680;4.132;2022-08-01T04:36:46;2.25;;;1.80;;
60869;SDS011;46710;43.680;4.132;2022-08-01T04:39:13;2.97;;;1.60;;
60869;SDS011;46710;43.680;4.132;2022-08-01T04:41:41;3.28;;;1.62;;
60869;SDS011;46710;43.680;4.132;2022-08-01T04:44:07;3.65;;;1.50;;
60869;SDS011;46710;43.680;4.132;2022-08-01T04:46:34;1.77;;;1.65;;
60869;SDS011;46710;43.680;4.132;2022-08-01T04:49:02;2.28;;;1.55;;
60869;SDS011;46710;43.680;4.132;2022-08-01T04:51:28;2.67;;;1.65;;
60869;SDS011;46710;43.680;4.132;2022-08-01T04:53:54;2.15;;;1.50;;
60869;SDS011;46710;43.680;4.132;2022-08-01T04:56:22;1.60;;;1.50;;
60869;SDS011;46710;43.680;4.132;2022-08-01T04:58:48;3.15;;;1.60;;
60869;SDS011;46710;43.680;4.132;2022-08-01T05:01:34;2.40;;;1.60;;
60869;SDS011;46710;43.680;4.132;2022-08-01T05:04:01;2.90;;;1.60;;
60869;SDS011;46710;43.680;4.132;2022-08-01T05:06:27;1.80;;;1.60;;
60869;SDS011;46710;43.680;4.132;2022-08-01T05:08:53;3.87;;;1.70;;
60869;SDS011;46710;43.680;4.132;2022-08-01T05:11:19;1.48;;;1.35;;
60869;SDS011;46710;43.680;4.132;2022-08-01T05:13:47;2.65;;;1.65;;
60869;SDS011;46710;43.680;4.132;2022-08-01T05:16:13;2.10;;;1.58;;
60869;SDS011;46710;43.680;4.132;2022-08-01T05:18:39;1.73;;;1.40;;
60869;SDS011;46710;43.680;4.132;2022-08-01T05:21:06;2.85;;;1.60;;
60869;SDS011;46710;43.680;4.132;2022-08-01T05:23:32;2.20;;;1.37;;
60869;SDS011;46710;43.680;4.132;2022-08-01T05:25:58;1.55;;;1.45;;
60869;SDS011;46710;43.680;4.132;2022-08-01T05:28:24;2.28;;;1.52;;
60869;SDS011;46710;43.680;4.132;2022-08-01T05:30:50;2.45;;;1.50;;
60869;SDS011;46710;43.680;4.132;2022-08-01T05:33:19;1.65;;;1.50;;
60869;SDS011;46710;43.680;4.132;2022-08-01T05:35:46;2.03;;;1.83;;
60869;SDS011;46710;43.680;4.132;2022-08-01T05:38:12;3.22;;;1.55;;
60869;SDS011;46710;43.680;4.132;2022-08-01T05:40:38;1.70;;;1.55;;
60869;SDS011;46710;43.680;4.132;2022-08-01T05:43:05;6.78;;;1.55;;
60869;SDS011;46710;43.680;4.132;2022-08-01T05:45:31;2.05;;;1.67;;
60869;SDS011;46710;43.680;4.132;2022-08-01T05:47:57;1.60;;;1.50;;
60869;SDS011;46710;43.680;4.132;2022-08-01T05:50:23;4.25;;;1.92;;
60869;SDS011;46710;43.680;4.132;2022-08-01T05:52:49;3.40;;;1.75;;
60869;SDS011;46710;43.680;4.132;2022-08-01T05:55:15;3.58;;;1.77;;
60869;SDS011;46710;43.680;4.132;2022-08-01T05:57:41;2.95;;;1.67;;
60869;SDS011;46710;43.680;4.132;2022-08-01T06:00:08;3.78;;;1.45;;
60869;SDS011;46710;43.680;4.132;2022-08-01T06:02:39;1.70;;;1.40;;
60869;SDS011;46710;43.680;4.132;2022-08-01T06:05:05;1.73;;;1.62;;
60869;SDS011;46710;43.680;4.132;2022-08-01T06:07:31;1.92;;;1.50;;
60869;SDS011;46710;43.680;4.132;2022-08-01T06:09:58;2.65;;;1.30;;
60869;SDS011;46710;43.680;4.132;2022-08-01T06:12:24;2.95;;;1.60;;
60869;SDS011;46710;43.680;4.132;2022-08-01T06:14:50;2.65;;;1.55;;
60869;SDS011;46710;43.680;4.132;2022-08-01T06:17:16;5.15;;;1.50;;
60869;SDS011;46710;43.680;4.132;2022-08-01T06:19:42;4.53;;;1.48;;
60869;SDS011;46710;43.680;4.132;2022-08-01T06:22:08;4.22;;;1.80;;
60869;SDS011;46710;43.680;4.132;2022-08-01T06:24:34;5.57;;;1.60;;
60869;SDS011;46710;43.680;4.132;2022-08-01T06:27:01;6.18;;;1.50;;
60869;SDS011;46710;43.680;4.132;2022-08-01T06:29:29;3.62;;;1.80;;
60869;SDS011;46710;43.680;4.132;2022-08-01T06:31:56;7.43;;;1.80;;
60869;SDS011;46710;43.680;4.132;2022-08-01T06:34:22;12.35;;;2.00;;
60869;SDS011;46710;43.680;4.132;2022-08-01T06:36:48;10.70;;;2.25;;
60869;SDS011;46710;43.680;4.132;2022-08-01T06:39:15;6.60;;;2.00;;
60869;SDS011;46710;43.680;4.132;2022-08-01T06:41:41;10.85;;;2.45;;
60869;SDS011;46710;43.680;4.132;2022-08-01T06:44:07;6.32;;;1.80;;
60869;SDS011;46710;43.680;4.132;2022-08-01T06:46:34;6.53;;;1.95;;
60869;SDS011;46710;43.680;4.132;2022-08-01T06:49:00;7.43;;;1.83;;
60869;SDS011;46710;43.680;4.132;2022-08-01T06:51:26;4.65;;;1.80;;
60869;SDS011;46710;43.680;4.132;2022-08-01T06:53:52;5.20;;;1.80;;
60869;SDS011;46710;43.680;4.132;2022-08-01T06:56:19;4.20;;;1.48;;
60869;SDS011;46710;43.680;4.132;2022-08-01T06:58:45;2.75;;;1.85;;
60869;SDS011;46710;43.680;4.132;2022-08-01T07:01:11;7.57;;;1.92;;
60869;SDS011;46710;43.680;4.132;2022-08-01T07:03:37;5.93;;;1.77;;
60869;SDS011;46710;43.680;4.132;2022-08-01T07:06:03;1.73;;;1.62;;
60869;SDS011;46710;43.680;4.132;2022-08-01T07:08:30;3.47;;;1.60;;
60869;SDS011;46710;43.680;4.132;2022-08-01T07:10:56;1.48;;;1.37;;
60869;SDS011;46710;43.680;4.132;2022-08-01T07:13:25;3.30;;;1.70;;
60869;SDS011;46710;43.680;4.132;2022-08-01T07:15:51;2.40;;;1.45;;
60869;SDS011;46710;43.680;4.132;2022-08-01T07:18:18;3.75;;;1.52;;
60869;SDS011;46710;43.680;4.132;2022-08-01T07:20:44;2.47;;;1.52;;
60869;SDS011;46710;43.680;4.132;2022-08-01T07:23:13;1.73;;;1.50;;
60869;SDS011;46710;43.680;4.132;2022-08-01T07:25:40;2.37;;;1.40;;
60869;SDS011;46710;43.680;4.132;2022-08-01T07:28:06;4.12;;;1.55;;
60869;SDS011;46710;43.680;4.132;2022-08-01T07:30:32;8.35;;;1.60;;
60869;SDS011;46710;43.680;4.132;2022-08-01T07:32:58;3.85;;;1.52;;
60869;SDS011;46710;43.680;4.132;2022-08-01T07:35:24;2.30;;;1.45;;
60869;SDS011;46710;43.680;4.132;2022-08-01T07:37:51;1.45;;;1.12;;
60869;SDS011;46710;43.680;4.132;2022-08-01T07:40:18;3.35;;;1.67;;
60869;SDS011;46710;43.680;4.132;2022-08-01T07:42:45;3.75;;;1.48;;
60869;SDS011;46710;43.680;4.132;2022-08-01T07:45:12;6.37;;;1.70;;
60869;SDS011;46710;43.680;4.132;2022-08-01T07:47:39;7.90;;;1.67;;
60869;SDS011;46710;43.680;4.132;2022-08-01T07:50:05;4.05;;;1.50;;
60869;SDS011;46710;43.680;4.132;2022-08-01T07:52:31;8.02;;;1.20;;
60869;SDS011;46710;43.680;4.132;2022-08-01T07:54:57;4.97;;;1.65;;
60869;SDS011;46710;43.680;4.132;2022-08-01T07:57:24;2.12;;;1.42;;
60869;SDS011;46710;43.680;4.132;2022-08-01T07:59:51;1.75;;;1.40;;
60869;SDS011;46710;43.680;4.132;2022-08-01T08:02:17;2.28;;;1.35;;
60869;SDS011;46710;43.680;4.132;2022-08-01T08:04:43;1.52;;;1.25;;
60869;SDS011;46710;43.680;4.132;2022-08-01T08:07:09;2.15;;;1.20;;
60869;SDS011;46710;43.680;4.132;2022-08-01T08:09:35;2.53;;;1.75;;
60869;SDS011;46710;43.680;4.132;2022-08-01T08:12:02;1.90;;;1.40;;
60869;SDS011;46710;43.680;4.132;2022-08-01T08:14:28;1.85;;;1.30;;
60869;SDS011;46710;43.680;4.132;2022-08-01T08:16:54;1.30;;;1.20;;
60869;SDS011;46710;43.680;4.132;2022-08-01T08:19:20;4.43;;;1.45;;
60869;SDS011;46710;43.680;4.132;2022-08-01T08:21:46;3.08;;;1.40;;
60869;SDS011;46710;43.680;4.132;2022-08-01T08:24:12;2.80;;;1.40;;
60869;SDS011;46710;43.680;4.132;2022-08-01T08:29:10;1.45;;;1.20;;
60869;SDS011;46710;43.680;4.132;2022-08-01T08:31:37;3.17;;;1.37;;
60869;SDS011;46710;43.680;4.132;2022-08-01T08:34:03;1.85;;;1.15;;
60869;SDS011;46710;43.680;4.132;2022-08-01T08:36:29;1.45;;;1.35;;
60869;SDS011;46710;43.680;4.132;2022-08-01T08:38:55;3.55;;;1.40;;
60869;SDS011;46710;43.680;4.132;2022-08-01T08:41:21;2.55;;;1.60;;
60869;SDS011;46710;43.680;4.132;2022-08-01T08:43:48;2.50;;;1.60;;
60869;SDS011;46710;43.680;4.132;2022-08-01T08:46:14;6.20;;;1.35;;
60869;SDS011;46710;43.680;4.132;2022-08-01T08:48:41;1.30;;;1.20;;
60869;SDS011;46710;43.680;4.132;2022-08-01T08:51:08;3.05;;;1.42;;
60869;SDS011;46710;43.680;4.132;2022-08-01T08:53:36;1.55;;;1.25;;
60869;SDS011;46710;43.680;4.132;2022-08-01T08:56:04;1.50;;;1.30;;
60869;SDS011;46710;43.680;4.132;2022-08-01T08:58:32;2.17;;;1.40;;
60869;SDS011;46710;43.680;4.132;2022-08-01T09:01:04;1.60;;;1.50;;
60869;SDS011;46710;43.680;4.132;2022-08-01T09:03:32;1.40;;;1.30;;
60869;SDS011;46710;43.680;4.132;2022-08-01T09:05:58;2.87;;;1.30;;
60869;SDS011;46710;43.680;4.132;2022-08-01T09:08:24;3.62;;;1.45;;
60869;SDS011;46710;43.680;4.132;2022-08-01T09:10:51;1.62;;;1.52;;
60869;SDS011;46710;43.680;4.132;2022-08-01T09:13:17;2.35;;;2.05;;
60869;SDS011;46710;43.680;4.132;2022-08-01T09:15:46;6.75;;;5.53;;
60869;SDS011;46710;43.680;4.132;2022-08-01T09:21:27;2.10;;;1.85;;
60869;SDS011;46710;43.680;4.132;2022-08-01T09:23:50;1.83;;;1.60;;
60869;SDS011;46710;43.680;4.132;2022-08-01T09:26:20;1.55;;;1.25;;
60869;SDS011;46710;43.680;4.132;2022-08-01T09:28:47;2.67;;;1.37;;
60869;SDS011;46710;43.680;4.132;2022-08-01T09:31:14;1.80;;;1.40;;
60869;SDS011;46710;43.680;4.132;2022-08-01T09:36:17;4.68;;;1.40;;
60869;SDS011;46710;43.680;4.132;2022-08-01T09:38:43;1.23;;;1.10;;
60869;SDS011;46710;43.680;4.132;2022-08-01T09:41:09;1.20;;;1.05;;
60869;SDS011;46710;43.680;4.132;2022-08-01T09:43:36;1.55;;;1.23;;
60869;SDS011;46710;43.680;4.132;2022-08-01T09:46:09;2.00;;;1.30;;
60869;SDS011;46710;43.680;4.132;2022-08-01T09:48:39;4.03;;;1.33;;
60869;SDS011;46710;43.680;4.132;2022-08-01T09:51:27;4.65;;;1.60;;
60869;SDS011;46710;43.680;4.132;2022-08-01T09:53:53;2.15;;;1.45;;
60869;SDS011;46710;43.680;4.132;2022-08-01T09:56:21;2.37;;;1.30;;
60869;SDS011;46710;43.680;4.132;2022-08-01T09:58:57;3.58;;;1.15;;
60869;SDS011;46710;43.680;4.132;2022-08-01T10:01:23;1.87;;;1.17;;
60869;SDS011;46710;43.680;4.132;2022-08-01T10:06:31;2.17;;;1.10;;
60869;SDS011;46710;43.680;4.132;2022-08-01T10:08:57;4.12;;;1.52;;
60869;SDS011;46710;43.680;4.132;2022-08-01T10:11:24;2.60;;;1.50;;
60869;SDS011;46710;43.680;4.132;2022-08-01T10:13:50;5.10;;;1.20;;
60869;SDS011;46710;43.680;4.132;2022-08-01T10:16:17;1.92;;;1.15;;
60869;SDS011;46710;43.680;4.132;2022-08-01T10:18:44;2.15;;;1.02;;
60869;SDS011;46710;43.680;4.132;2022-08-01T10:21:10;4.78;;;1.33;;
60869;SDS011;46710;43.680;4.132;2022-08-01T10:23:37;2.58;;;2.20;;
60869;SDS011;46710;43.680;4.132;2022-08-01T10:26:07;2.00;;;1.83;;
60869;SDS011;46710;43.680;4.132;2022-08-01T10:28:34;3.90;;;3.50;;
60869;SDS011;46710;43.680;4.132;2022-08-01T10:31:01;3.35;;;3.05;;
60869;SDS011;46710;43.680;4.132;2022-08-01T10:33:28;18.27;;;14.70;;
60869;SDS011;46710;43.680;4.132;2022-08-01T10:35:55;18.73;;;15.45;;
60869;SDS011;46710;43.680;4.132;2022-08-01T10:38:21;6.37;;;3.28;;
60869;SDS011;46710;43.680;4.132;2022-08-01T10:40:48;3.12;;;1.35;;
60869;SDS011;46710;43.680;4.132;2022-08-01T10:43:15;2.03;;;1.10;;
60869;SDS011;46710;43.680;4.132;2022-08-01T10:45:42;1.05;;;1.00;;
60869;SDS011;46710;43.680;4.132;2022-08-01T10:48:16;1.00;;;0.90;;
60869;SDS011;46710;43.680;4.132;2022-08-01T10:50:45;3.03;;;1.58;;
60869;SDS011;46710;43.680;4.132;2022-08-01T10:56:00;3.90;;;1.50;;
60869;SDS011;46710;43.680;4.132;2022-08-01T10:58:28;2.10;;;0.80;;
60869;SDS011;46710;43.680;4.132;2022-08-01T11:03:39;5.03;;;1.40;;
60869;SDS011;46710;43.680;4.132;2022-08-01T11:06:06;1.45;;;0.93;;
60869;SDS011;46710;43.680;4.132;2022-08-01T11:08:33;1.08;;;0.80;;
60869;SDS011;46710;43.680;4.132;2022-08-01T11:11:02;1.58;;;1.00;;
60869;SDS011;46710;43.680;4.132;2022-08-01T11:16:26;4.12;;;1.42;;
60869;SDS011;46710;43.680;4.132;2022-08-01T11:18:52;4.80;;;1.42;;
60869;SDS011;46710;43.680;4.132;2022-08-01T11:21:18;2.40;;;1.10;;
60869;SDS011;46710;43.680;4.132;2022-08-01T11:23:50;1.70;;;0.90;;
60869;SDS011;46710;43.680;4.132;2022-08-01T11:29:10;1.27;;;1.12;;
60869;SDS011;46710;43.680;4.132;2022-08-01T11:31:33;3.20;;;1.08;;
60869;SDS011;46710;43.680;4.132;2022-08-01T11:33:59;1.75;;;1.00;;
60869;SDS011;46710;43.680;4.132;2022-08-01T11:36:26;1.17;;;0.85;;
60869;SDS011;46710;43.680;4.132;2022-08-01T11:41:32;1.48;;;0.85;;
60869;SDS011;46710;43.680;4.132;2022-08-01T11:44:00;1.60;;;0.90;;
60869;SDS011;46710;43.680;4.132;2022-08-01T11:49:28;2.40;;;0.82;;
60869;SDS011;46710;43.680;4.132;2022-08-01T11:54:31;1.55;;;0.90;;
60869;SDS011;46710;43.680;4.132;2022-08-01T11:56:58;1.42;;;0.80;;
60869;SDS011;46710;43.680;4.132;2022-08-01T11:59:24;1.00;;;0.90;;
60869;SDS011;46710;43.680;4.132;2022-08-01T12:01:51;1.33;;;0.90;;
60869;SDS011;46710;43.680;4.132;2022-08-01T12:04:18;3.67;;;0.95;;
60869;SDS011;46710;43.680;4.132;2022-08-01T12:06:44;2.65;;;0.80;;
60869;SDS011;46710;43.680;4.132;2022-08-01T12:09:15;0.90;;;0.80;;
60869;SDS011;46710;43.680;4.132;2022-08-01T12:11:41;1.75;;;1.02;;
60869;SDS011;46710;43.680;4.132;2022-08-01T12:14:07;1.25;;;0.95;;
60869;SDS011;46710;43.680;4.132;2022-08-01T12:16:34;1.67;;;0.80;;
60869;SDS011;46710;43.680;4.132;2022-08-01T12:19:00;0.82;;;0.82;;
60869;SDS011;46710;43.680;4.132;2022-08-01T12:21:26;1.58;;;0.80;;
60869;SDS011;46710;43.680;4.132;2022-08-01T12:24:02;0.80;;;0.80;;
60869;SDS011;46710;43.680;4.132;2022-08-01T12:26:43;0.80;;;0.80;;
60869;SDS011;46710;43.680;4.132;2022-08-01T12:29:09;0.80;;;0.77;;
60869;SDS011;46710;43.680;4.132;2022-08-01T12:31:36;1.50;;;0.90;;
60869;SDS011;46710;43.680;4.132;2022-08-01T12:36:47;1.77;;;0.80;;
60869;SDS011;46710;43.680;4.132;2022-08-01T12:39:13;0.80;;;0.80;;
60869;SDS011;46710;43.680;4.132;2022-08-01T12:41:39;1.20;;;1.08;;
60869;SDS011;46710;43.680;4.132;2022-08-01T12:44:14;1.42;;;1.00;;
60869;SDS011;46710;43.680;4.132;2022-08-01T12:46:41;2.78;;;1.05;;
60869;SDS011;46710;43.680;4.132;2022-08-01T12:49:07;1.10;;;1.00;;
60869;SDS011;46710;43.680;4.132;2022-08-01T12:51:34;0.80;;;0.80;;
60869;SDS011;46710;43.680;4.132;2022-08-01T12:54:00;1.05;;;0.90;;
60869;SDS011;46710;43.680;4.132;2022-08-01T12:56:32;1.35;;;0.82;;
60869;SDS011;46710;43.680;4.132;2022-08-01T12:58:58;2.47;;;0.98;;
60869;SDS011;46710;43.680;4.132;2022-08-01T13:01:25;1.25;;;1.00;;
60869;SDS011;46710;43.680;4.132;2022-08-01T13:04:01;0.70;;;0.70;;
60869;SDS011;46710;43.680;4.132;2022-08-01T13:06:31;2.05;;;1.10;;
60869;SDS011;46710;43.680;4.132;2022-08-01T13:09:07;1.35;;;1.25;;
60869;SDS011;46710;43.680;4.132;2022-08-01T13:11:34;4.25;;;1.30;;
60869;SDS011;46710;43.680;4.132;2022-08-01T13:14:01;1.87;;;1.33;;
60869;SDS011;46710;43.680;4.132;2022-08-01T13:16:27;2.70;;;1.40;;
60869;SDS011;46710;43.680;4.132;2022-08-01T13:18:55;4.62;;;1.50;;
60869;SDS011;46710;43.680;4.132;2022-08-01T13:21:23;3.58;;;1.40;;
60869;SDS011;46710;43.680;4.132;2022-08-01T13:29:06;3.37;;;1.60;;
60869;SDS011;46710;43.680;4.132;2022-08-01T13:31:33;1.35;;;1.25;;
60869;SDS011;46710;43.680;4.132;2022-08-01T13:34:00;2.62;;;1.55;;
60869;SDS011;46710;43.680;4.132;2022-08-01T13:36:27;2.15;;;1.45;;
60869;SDS011;46710;43.680;4.132;2022-08-01T13:38:54;1.83;;;1.45;;
60869;SDS011;46710;43.680;4.132;2022-08-01T13:41:39;2.78;;;1.80;;
60869;SDS011;46710;43.680;4.132;2022-08-01T13:44:05;4.93;;;1.35;;
60869;SDS011;46710;43.680;4.132;2022-08-01T13:46:43;3.47;;;1.60;;
60869;SDS011;46710;43.680;4.132;2022-08-01T13:49:13;2.72;;;1.30;;
60869;SDS011;46710;43.680;4.132;2022-08-01T13:51:39;7.53;;;1.80;;
60869;SDS011;46710;43.680;4.132;2022-08-01T13:54:06;7.62;;;1.70;;
60869;SDS011;46710;43.680;4.132;2022-08-01T13:56:33;1.70;;;1.50;;
60869;SDS011;46710;43.680;4.132;2022-08-01T13:59:00;2.87;;;1.80;;
60869;SDS011;46710;43.680;4.132;2022-08-01T14:01:26;9.38;;;2.45;;
60869;SDS011;46710;43.680;4.132;2022-08-01T14:03:52;2.58;;;1.80;;
60869;SDS011;46710;43.680;4.132;2022-08-01T14:06:18;2.00;;;1.80;;
60869;SDS011;46710;43.680;4.132;2022-08-01T14:08:47;2.87;;;2.03;;
60869;SDS011;46710;43.680;4.132;2022-08-01T14:11:14;3.87;;;1.98;;
60869;SDS011;46710;43.680;4.132;2022-08-01T14:13:40;2.60;;;2.00;;
60869;SDS011;46710;43.680;4.132;2022-08-01T14:16:06;10.10;;;2.28;;
60869;SDS011;46710;43.680;4.132;2022-08-01T14:18:32;5.10;;;2.17;;
60869;SDS011;46710;43.680;4.132;2022-08-01T14:20:59;4.72;;;2.15;;
60869;SDS011;46710;43.680;4.132;2022-08-01T14:23:25;2.95;;;1.90;;
